createdAt,value
2023-03-16T00:00:33.266Z,87.40
2023-03-16T00:04:37.450Z,87.00
2023-03-16T00:08:40.241Z,87.40
2023-03-16T00:12:44.986Z,87.50
2023-03-16T00:16:47.880Z,87.50
2023-03-16T00:20:55.349Z,87.40
2023-03-16T00:24:58.735Z,87.80
2023-03-16T00:29:02.829Z,87.70
2023-03-16T00:33:05.627Z,88.10
2023-03-16T00:37:08.664Z,88.40
2023-03-16T00:41:14.249Z,88.80
2023-03-16T00:45:18.520Z,88.50
2023-03-16T00:49:22.323Z,88.20
2023-03-16T00:53:25.256Z,88.50
2023-03-16T00:57:30.025Z,87.00
2023-03-16T01:01:34.583Z,86.40
2023-03-16T01:05:41.873Z,85.80
2023-03-16T01:09:44.864Z,85.50
2023-03-16T01:13:48.554Z,85.30
2023-03-16T01:17:52.782Z,85.30
2023-03-16T01:21:55.594Z,85.20
2023-03-16T01:25:59.097Z,85.10
2023-03-16T01:30:02.272Z,85.30
2023-03-16T01:34:06.933Z,85.60
2023-03-16T01:38:10.497Z,85.90
2023-03-16T01:42:15.015Z,85.80
2023-03-16T01:46:21.435Z,85.70
2023-03-16T01:50:27.749Z,85.70
2023-03-16T01:54:33.775Z,86.00
2023-03-16T01:58:38.463Z,86.70
2023-03-16T02:02:44.444Z,87.20
2023-03-16T02:06:57.471Z,87.90
2023-03-16T02:11:01.291Z,88.10
2023-03-16T02:15:16.871Z,88.20
2023-03-16T02:19:32.702Z,88.40
2023-03-16T02:23:36.813Z,88.40
2023-03-16T02:27:47.473Z,88.70
2023-03-16T02:31:52.498Z,89.30
2023-03-16T02:35:55.439Z,89.70
2023-03-16T02:39:58.364Z,89.70
2023-03-16T02:44:05.050Z,89.80
2023-03-16T02:48:19.061Z,90.00
2023-03-16T02:52:21.877Z,90.00
2023-03-16T02:56:24.700Z,90.00
2023-03-16T03:00:27.718Z,90.10
2023-03-16T03:04:32.988Z,90.30
2023-03-16T03:08:35.779Z,90.40
2023-03-16T03:12:38.624Z,90.60
2023-03-16T03:16:46.644Z,90.60
2023-03-16T03:20:52.757Z,90.70
2023-03-16T03:24:55.551Z,90.90
2023-03-16T03:28:58.379Z,91.00
2023-03-16T03:33:01.653Z,91.20
2023-03-16T03:37:06.902Z,91.20
2023-03-16T03:41:10.496Z,91.10
2023-03-16T03:45:15.633Z,91.20
2023-03-16T03:49:18.863Z,91.40
2023-03-16T03:53:25.664Z,91.40
2023-03-16T03:57:44.218Z,91.40
2023-03-16T04:01:47.137Z,91.20
2023-03-16T04:05:50.032Z,90.90
2023-03-16T04:09:54.308Z,90.90
2023-03-16T04:14:03.748Z,90.80
2023-03-16T04:18:06.737Z,90.70
2023-03-16T04:22:10.264Z,90.80
2023-03-16T04:26:14.619Z,90.80
2023-03-16T04:30:20.313Z,90.80
2023-03-16T04:34:28.560Z,90.70
2023-03-16T04:38:37.987Z,90.80
2023-03-16T04:42:42.294Z,90.80
2023-03-16T04:46:48.878Z,90.80
2023-03-16T04:50:53.736Z,90.70
2023-03-16T04:54:57.230Z,90.60
2023-03-16T04:59:02.252Z,90.60
2023-03-16T05:03:11.145Z,90.70
2023-03-16T05:07:14.170Z,90.60
2023-03-16T05:11:21.448Z,90.50
2023-03-16T05:15:33.637Z,90.60
2023-03-16T05:19:50.737Z,90.30
2023-03-16T05:23:55.533Z,90.30
2023-03-16T05:27:58.790Z,90.20
2023-03-16T05:32:12.064Z,90.30
2023-03-16T05:36:17.529Z,90.20
2023-03-16T05:40:23.784Z,90.10
2023-03-16T05:44:35.430Z,89.70
2023-03-16T05:48:51.203Z,90.00
2023-03-16T05:52:55.991Z,89.60
2023-03-16T05:57:00.335Z,89.20
2023-03-16T06:01:05.388Z,88.70
2023-03-16T06:05:10.304Z,88.60
2023-03-16T06:09:16.606Z,88.60
2023-03-16T06:13:19.613Z,88.80
2023-03-16T06:17:22.482Z,88.40
2023-03-16T06:21:26.681Z,88.50
2023-03-16T06:25:31.787Z,88.00
2023-03-16T06:29:34.959Z,88.00
2023-03-16T06:33:39.007Z,88.00
2023-03-16T06:37:43.613Z,87.10
2023-03-16T06:42:00.730Z,87.20
2023-03-16T06:46:04.365Z,87.30
2023-03-16T06:50:08.977Z,86.60
2023-03-16T06:54:13.668Z,86.90
2023-03-16T06:58:16.721Z,86.00
2023-03-16T07:02:37.141Z,86.30
2023-03-16T07:06:43.289Z,85.80
2023-03-16T07:10:48.552Z,85.20
2023-03-16T07:14:54.042Z,84.20
2023-03-16T07:19:01.688Z,84.20
2023-03-16T07:23:05.404Z,83.30
2023-03-16T07:27:12.442Z,83.00
2023-03-16T07:31:15.950Z,83.60
2023-03-16T07:35:19.245Z,83.60
2023-03-16T07:39:22.730Z,84.10
2023-03-16T07:43:30.126Z,83.90
2023-03-16T07:47:33.695Z,84.10
2023-03-16T07:51:42.345Z,83.70
2023-03-16T07:55:45.962Z,83.50
2023-03-16T07:59:50.219Z,82.70
2023-03-16T08:03:54.455Z,83.10
2023-03-16T08:07:58.040Z,83.40
2023-03-16T08:12:03.916Z,82.60
2023-03-16T08:16:13.192Z,82.20
2023-03-16T08:20:19.270Z,81.60
2023-03-16T08:24:23.567Z,81.70
2023-03-16T08:28:27.005Z,79.90
2023-03-16T08:32:33.408Z,79.00
2023-03-16T08:36:36.985Z,75.10
2023-03-16T08:40:42.094Z,73.10
2023-03-16T08:44:45.678Z,71.50
2023-03-16T08:48:50.098Z,72.10
2023-03-16T08:52:53.537Z,70.30
2023-03-16T08:56:56.626Z,68.30
2023-03-16T09:01:00.433Z,69.40
2023-03-16T09:05:04.947Z,65.90
2023-03-16T09:09:09.434Z,65.30
2023-03-16T09:13:12.635Z,65.30
2023-03-16T09:17:15.744Z,65.40
2023-03-16T09:21:19.956Z,66.20
2023-03-16T09:25:23.108Z,63.20
2023-03-16T09:29:25.898Z,62.20
2023-03-16T09:33:30.031Z,62.50
2023-03-16T09:37:44.742Z,62.00
2023-03-16T09:41:52.483Z,60.00
2023-03-16T09:46:03.925Z,61.80
2023-03-16T09:50:10.945Z,59.70
2023-03-16T09:54:27.590Z,58.70
2023-03-16T09:58:30.748Z,57.60
2023-03-16T10:02:59.759Z,57.50
2023-03-16T10:07:12.332Z,56.50
2023-03-16T10:11:27.751Z,57.00
2023-03-16T10:15:34.359Z,54.60
2023-03-16T10:19:41.967Z,55.00
2023-03-16T10:23:46.472Z,57.90
2023-03-16T10:27:51.278Z,57.50
2023-03-16T10:32:00.398Z,57.60
2023-03-16T10:36:11.394Z,56.50
2023-03-16T10:40:14.544Z,57.10
2023-03-16T10:44:24.489Z,57.20
2023-03-16T10:48:28.284Z,58.90
2023-03-16T10:52:36.354Z,59.90
2023-03-16T10:56:40.309Z,58.90
2023-03-16T11:00:45.298Z,59.60
2023-03-16T11:04:49.441Z,60.00
2023-03-16T11:08:53.978Z,58.30
2023-03-16T11:13:02.903Z,59.40
2023-03-16T11:17:12.281Z,60.40
2023-03-16T11:21:19.142Z,59.60
2023-03-16T11:25:28.594Z,58.20
2023-03-16T11:29:45.155Z,60.20
2023-03-16T11:33:50.049Z,59.60
2023-03-16T11:38:06.837Z,60.90
2023-03-16T11:42:25.160Z,60.80
2023-03-16T11:46:32.257Z,59.20
2023-03-16T11:50:46.952Z,58.70
2023-03-16T11:55:00.728Z,59.60
2023-03-16T11:59:27.027Z,59.90
2023-03-16T12:03:50.240Z,59.80
2023-03-16T12:08:05.884Z,58.50
2023-03-16T12:12:20.377Z,57.80
2023-03-16T12:16:39.090Z,57.60
2023-03-16T12:20:54.842Z,57.00
2023-03-16T12:24:58.925Z,57.10
2023-03-16T12:29:09.480Z,57.00
2023-03-16T12:33:19.449Z,56.70
2023-03-16T12:37:36.046Z,56.10
2023-03-16T12:41:52.645Z,56.30
2023-03-16T12:46:04.575Z,57.20
2023-03-16T12:50:09.279Z,56.60
2023-03-16T12:54:23.064Z,56.40
2023-03-16T12:58:28.492Z,56.20
2023-03-16T13:02:33.360Z,55.90
2023-03-16T13:06:37.417Z,55.80
2023-03-16T13:10:41.175Z,56.00
2023-03-16T13:14:45.758Z,56.20
2023-03-16T13:18:48.763Z,55.30
2023-03-16T13:23:08.156Z,56.30
2023-03-16T13:27:23.244Z,55.70
2023-03-16T13:31:34.920Z,55.40
2023-03-16T13:35:39.520Z,54.70
2023-03-16T13:39:42.621Z,54.60
2023-03-16T13:43:45.495Z,55.90
2023-03-16T13:47:49.933Z,54.70
2023-03-16T13:51:52.727Z,54.20
2023-03-16T13:55:57.087Z,54.10
2023-03-16T14:00:09.080Z,53.80
2023-03-16T14:04:15.822Z,52.50
2023-03-16T14:08:20.462Z,51.00
2023-03-16T14:12:23.398Z,52.00
2023-03-16T14:16:28.341Z,51.30
2023-03-16T14:20:34.936Z,51.60
2023-03-16T14:24:42.891Z,52.10
2023-03-16T14:28:57.301Z,51.20
2023-03-16T14:33:01.794Z,51.50
2023-03-16T14:37:11.755Z,52.00
2023-03-16T14:41:23.887Z,52.90
2023-03-16T14:45:31.864Z,52.90
2023-03-16T14:49:37.300Z,52.90
2023-03-16T14:53:41.614Z,53.10
2023-03-16T14:57:46.041Z,52.30
2023-03-16T15:01:50.657Z,52.20
2023-03-16T15:05:53.999Z,52.10
2023-03-16T15:10:10.249Z,51.60
2023-03-16T15:14:35.343Z,52.50
2023-03-16T15:18:39.219Z,53.00
2023-03-16T15:22:42.643Z,52.80
2023-03-16T15:26:47.128Z,52.30
2023-03-16T15:30:51.824Z,52.40
2023-03-16T15:34:54.711Z,52.70
2023-03-16T15:38:57.887Z,53.60
2023-03-16T15:43:02.475Z,53.50
2023-03-16T15:47:05.349Z,53.60
2023-03-16T15:51:16.726Z,54.00
2023-03-16T15:55:23.390Z,54.70
2023-03-16T15:59:31.662Z,54.90
2023-03-16T16:03:34.743Z,55.10
2023-03-16T16:07:37.728Z,55.90
2023-03-16T16:11:41.310Z,56.60
2023-03-16T16:15:46.981Z,56.50
2023-03-16T16:19:49.766Z,55.80
2023-03-16T16:23:53.575Z,57.00
2023-03-16T16:27:56.447Z,56.20
2023-03-16T16:32:01.118Z,56.50
2023-03-16T16:36:06.458Z,57.70
2023-03-16T16:40:14.768Z,57.30
2023-03-16T16:44:19.872Z,58.10
2023-03-16T16:48:31.890Z,58.40
2023-03-16T16:52:34.604Z,58.70
2023-03-16T16:56:38.741Z,59.60
2023-03-16T17:00:44.347Z,59.90
2023-03-16T17:04:50.539Z,60.60
2023-03-16T17:08:56.019Z,60.70
2023-03-16T17:13:06.062Z,61.70
2023-03-16T17:17:16.586Z,62.40
2023-03-16T17:21:23.960Z,63.10
2023-03-16T17:25:30.371Z,63.60
2023-03-16T17:29:34.548Z,64.10
2023-03-16T17:33:37.431Z,64.50
2023-03-16T17:37:41.634Z,65.40
2023-03-16T17:41:47.467Z,66.60
2023-03-16T17:45:53.757Z,67.00
2023-03-16T17:49:57.834Z,68.00
2023-03-16T17:54:02.167Z,69.00
2023-03-16T17:58:05.630Z,69.70
2023-03-16T18:02:33.501Z,70.60
2023-03-16T18:06:36.254Z,71.40
2023-03-16T18:10:40.617Z,72.00
2023-03-16T18:14:43.724Z,72.90
2023-03-16T18:18:47.715Z,73.60
2023-03-16T18:22:51.529Z,73.90
2023-03-16T18:26:56.958Z,75.20
2023-03-16T18:31:01.365Z,75.60
2023-03-16T18:35:04.579Z,76.30
2023-03-16T18:39:19.919Z,77.00
2023-03-16T18:43:26.121Z,77.60
2023-03-16T18:47:31.611Z,78.20
2023-03-16T18:51:34.602Z,78.70
2023-03-16T18:55:44.764Z,78.90
2023-03-16T18:59:50.734Z,79.00
2023-03-16T19:03:55.195Z,79.30
2023-03-16T19:07:59.305Z,79.60
2023-03-16T19:12:04.564Z,79.80
2023-03-16T19:16:17.270Z,80.00
2023-03-16T19:20:25.419Z,80.50
2023-03-16T19:24:32.509Z,80.50
2023-03-16T19:28:37.159Z,81.00
2023-03-16T19:32:41.278Z,81.00
2023-03-16T19:36:44.170Z,81.00
2023-03-16T19:40:48.839Z,81.30
2023-03-16T19:44:51.956Z,81.60
2023-03-16T19:48:56.565Z,81.70
2023-03-16T19:53:00.727Z,81.80
2023-03-16T19:57:08.336Z,81.40
2023-03-16T20:01:17.733Z,82.20
2023-03-16T20:05:25.136Z,82.30
2023-03-16T20:09:28.156Z,82.20
2023-03-16T20:13:35.597Z,82.20
2023-03-16T20:17:38.695Z,82.20
2023-03-16T20:21:43.222Z,82.40
2023-03-16T20:25:47.639Z,82.70
2023-03-16T20:29:51.653Z,83.10
2023-03-16T20:33:55.371Z,83.90
2023-03-16T20:37:59.799Z,83.20
2023-03-16T20:42:02.543Z,83.30
2023-03-16T20:46:06.403Z,83.20
2023-03-16T20:50:22.644Z,83.20
2023-03-16T20:54:27.178Z,83.40
2023-03-16T20:58:32.450Z,83.30
2023-03-16T21:02:36.042Z,83.30
2023-03-16T21:06:38.988Z,83.30
2023-03-16T21:10:44.646Z,83.20
2023-03-16T21:14:47.453Z,83.40
2023-03-16T21:18:50.402Z,83.50
2023-03-16T21:22:53.459Z,83.40
2023-03-16T21:26:57.816Z,83.60
2023-03-16T21:31:02.763Z,83.20
2023-03-16T21:35:06.611Z,83.30
2023-03-16T21:39:19.330Z,83.30
2023-03-16T21:43:25.645Z,82.70
2023-03-16T21:47:30.155Z,82.20
2023-03-16T21:51:33.511Z,81.90
2023-03-16T21:55:36.884Z,81.80
2023-03-16T21:59:41.093Z,81.80
2023-03-16T22:03:51.055Z,81.50
2023-03-16T22:07:57.389Z,81.30
2023-03-16T22:12:00.378Z,81.00
2023-03-16T22:16:15.010Z,81.00
2023-03-16T22:20:20.268Z,81.00
2023-03-16T22:24:25.373Z,80.90
2023-03-16T22:28:28.897Z,80.50
2023-03-16T22:32:33.241Z,80.70
2023-03-16T22:36:36.558Z,80.50
2023-03-16T22:40:40.450Z,80.60
2023-03-16T22:44:43.196Z,80.40
2023-03-16T22:48:47.512Z,79.90
2023-03-16T22:52:53.428Z,79.90
2023-03-16T22:56:56.378Z,79.80
2023-03-16T23:01:02.058Z,79.50
2023-03-16T23:05:19.747Z,79.70
2023-03-16T23:09:23.250Z,79.60
2023-03-16T23:13:27.260Z,79.60
2023-03-16T23:17:29.990Z,79.60
2023-03-16T23:21:34.050Z,79.70
2023-03-16T23:25:41.711Z,79.70
2023-03-16T23:29:44.456Z,79.80
2023-03-16T23:33:48.133Z,79.60
2023-03-16T23:37:55.578Z,79.10
2023-03-16T23:41:59.706Z,79.10
2023-03-16T23:46:03.119Z,79.10
2023-03-16T23:50:07.683Z,79.00
2023-03-16T23:54:16.768Z,78.90
2023-03-16T23:58:20.859Z,78.70
